Aviation Digital Data Service (ADDS)

Output produced by TAFs form (1220 UTC 02 August 2015)
found at http://aviationweather.gov/adds/tafs/
 
KTCS 021120Z 0212/0312 17005KT P6SM SCT100 
     FM022000 19010KT P6SM VCTS SCT070CB BKN120 
     FM030600 29006KT P6SM SCT100 BKN250